Time;durP1;ratioP1;P1;durP2;ratioP2;P2;SDS_P1;SDS_P2;PMS_P1;PMS_P2;Temp;Humidity;BMP_temperature;BMP_pressure;BME280_temperature;BME280_humidity;BME280_pressure;Samples;Min_cycle;Max_cycle;Signal;HPM_P1;HPM_P2
2021/05/26 00:01:53;;;;;;;2.10;0.77;;;;;;;8.82;63.81;97026.31;4980974;28;20530;-62
2021/05/26 00:04:19;;;;;;;4.00;1.30;;;;;;;8.73;63.38;97017.47;4975173;28;20693;-61
2021/05/26 00:06:44;;;;;;;2.45;0.88;;;;;;;8.68;63.69;97017.72;4974693;28;20065;-60
2021/05/26 00:09:09;;;;;;;0.80;0.55;;;;;;;8.59;63.97;97015.94;4970888;28;20043;-62
2021/05/26 00:11:35;;;;;;;5.70;0.93;;;;;;;8.59;64.75;97012.41;4975659;28;20101;-60
2021/05/26 00:14:00;;;;;;;1.95;0.60;;;;;;;8.55;64.69;97003.31;4979117;28;20488;-61
2021/05/26 00:16:26;;;;;;;2.85;0.88;;;;;;;8.49;63.55;97000.03;4958820;28;20054;-63
2021/05/26 00:18:52;;;;;;;1.05;0.68;;;;;;;8.54;64.20;96990.81;4960794;28;20178;-61
2021/05/26 00:21:19;;;;;;;1.30;0.80;;;;;;;8.56;63.99;96986.56;4971941;28;20100;-59
2021/05/26 00:23:45;;;;;;;2.20;1.58;;;;;;;8.70;62.88;96983.47;4970752;28;20042;-60
2021/05/26 00:26:11;;;;;;;2.53;1.08;;;;;;;8.70;65.30;96983.47;4976581;28;20054;-62
2021/05/26 00:28:37;;;;;;;1.88;0.82;;;;;;;8.67;64.88;96981.41;4977404;28;20046;-58
2021/05/26 00:31:05;;;;;;;0.68;0.52;;;;;;;8.66;65.05;96973.56;4979017;28;20042;-62
2021/05/26 00:33:30;;;;;;;4.15;0.93;;;;;;;8.59;65.51;96969.50;4976901;28;20046;-60
2021/05/26 00:35:56;;;;;;;3.60;1.23;;;;;;;8.54;66.41;96963.50;4966608;28;20062;-59
2021/05/26 00:38:21;;;;;;;0.93;0.70;;;;;;;7.85;71.48;96969.63;4965190;28;20140;-62
2021/05/26 00:40:47;;;;;;;2.60;0.70;;;;;;;7.60;71.26;96966.13;4975135;28;20050;-62
2021/05/26 00:43:15;;;;;;;6.50;1.42;;;;;;;7.37;71.53;96960.31;4977453;28;20042;-63
2021/05/26 00:45:41;;;;;;;1.42;0.85;;;;;;;7.30;72.04;96957.34;4975088;28;20046;-62
2021/05/26 00:48:06;;;;;;;1.48;0.88;;;;;;;7.34;72.69;96958.25;4978490;28;20053;-60
2021/05/26 00:50:34;;;;;;;2.95;0.88;;;;;;;7.24;73.48;96956.00;4982434;28;20050;-59
2021/05/26 00:53:05;;;;;;;5.88;0.88;;;;;;;7.23;74.85;96941.56;4984154;28;20132;-62
2021/05/26 00:55:31;;;;;;;2.72;0.98;;;;;;;7.37;73.49;96948.63;4981623;28;20050;-63
2021/05/26 00:57:59;;;;;;;3.38;1.45;;;;;;;7.38;72.50;96939.31;4964732;28;20051;-60
2021/05/26 01:00:26;;;;;;;1.50;1.23;;;;;;;7.45;72.64;96936.81;4956376;28;20081;-62
2021/05/26 01:02:52;;;;;;;3.58;0.90;;;;;;;7.68;73.03;96942.59;4962168;28;20077;-62
2021/05/26 01:05:20;;;;;;;1.00;0.68;;;;;;;7.70;72.38;96936.81;4956074;28;20030;-62
2021/05/26 01:07:46;;;;;;;1.98;0.68;;;;;;;7.64;71.99;96942.50;4961850;28;20436;-61
2021/05/26 01:10:14;;;;;;;1.92;0.90;;;;;;;7.55;72.96;96930.13;4983372;23;20457;-62
2021/05/26 01:12:40;;;;;;;3.45;1.02;;;;;;;7.37;73.47;96935.00;4977119;28;20046;-62
2021/05/26 01:15:10;;;;;;;4.00;0.90;;;;;;;7.31;73.89;96922.72;4985640;28;20042;-64
2021/05/26 01:17:35;;;;;;;1.20;0.82;;;;;;;7.27;73.79;96919.88;4987165;28;20042;-62
2021/05/26 01:20:03;;;;;;;1.77;0.77;;;;;;;7.11;75.88;96916.22;4987538;28;20038;-62
2021/05/26 01:22:29;;;;;;;3.35;1.10;;;;;;;7.04;77.01;96919.50;5008011;28;20050;-64
2021/05/26 01:24:54;;;;;;;1.55;1.00;;;;;;;6.86;79.12;96914.28;5005039;28;20034;-63
2021/05/26 01:27:20;;;;;;;2.03;1.20;;;;;;;6.77;78.59;96912.75;4995834;28;20425;-62
2021/05/26 01:29:46;;;;;;;1.45;1.00;;;;;;;6.72;79.10;96910.25;4997382;28;20042;-63
2021/05/26 01:32:11;;;;;;;3.35;1.10;;;;;;;6.75;78.31;96909.56;4981306;28;20038;-63
2021/05/26 01:34:37;;;;;;;2.35;0.98;;;;;;;6.78;78.57;96911.63;5004598;28;20552;-62
2021/05/26 01:37:02;;;;;;;1.77;0.80;;;;;;;6.83;77.84;96897.81;5003157;28;20042;-64
2021/05/26 01:39:28;;;;;;;5.45;1.40;;;;;;;6.91;76.86;96882.50;5003928;28;20147;-64
2021/05/26 01:41:55;;;;;;;2.55;1.02;;;;;;;6.79;78.43;96886.00;5003210;28;20054;-62
2021/05/26 01:44:24;;;;;;;4.22;1.10;;;;;;;6.71;80.12;96895.84;4999068;28;20464;-62
2021/05/26 01:46:50;;;;;;;2.25;1.30;;;;;;;6.68;80.88;96891.88;5003598;28;20050;-63
2021/05/26 01:49:15;;;;;;;1.52;1.20;;;;;;;6.71;80.50;96887.69;4994853;28;20046;-64
2021/05/26 01:51:40;;;;;;;2.50;1.27;;;;;;;6.80;80.60;96884.88;5000355;28;20038;-62
2021/05/26 01:54:06;;;;;;;1.70;1.00;;;;;;;6.84;78.86;96883.88;4996543;28;20103;-63
2021/05/26 01:56:33;;;;;;;3.47;1.30;;;;;;;6.83;79.09;96868.66;5003798;28;20096;-64
2021/05/26 01:59:00;;;;;;;1.40;0.98;;;;;;;6.99;79.21;96871.50;5005011;28;20052;-63
2021/05/26 02:01:26;;;;;;;5.05;0.98;;;;;;;7.10;78.47;96863.69;5005360;28;20046;-65
2021/05/26 02:03:53;;;;;;;4.95;1.05;;;;;;;7.13;78.32;96854.84;5010367;28;20042;-64
2021/05/26 02:06:21;;;;;;;1.30;0.90;;;;;;;7.03;78.46;96858.03;5000499;28;20398;-64
2021/05/26 02:08:49;;;;;;;8.00;3.53;;;;;;;6.88;79.07;96863.00;5000619;28;20046;-62
2021/05/26 02:14:00;;;;;;;3.40;1.50;;;;;;;6.76;78.95;96854.81;5002360;28;20049;-64
2021/05/26 02:16:25;;;;;;;2.63;1.20;;;;;;;6.77;77.62;96850.97;4980744;28;20402;-62
2021/05/26 02:18:51;;;;;;;2.45;1.10;;;;;;;6.73;78.04;96850.03;4990228;28;20046;-65
2021/05/26 02:21:16;;;;;;;3.13;0.90;;;;;;;6.70;78.81;96850.72;4986621;28;20038;-62
2021/05/26 02:23:41;;;;;;;3.30;1.25;;;;;;;6.62;78.79;96846.94;5001772;28;20502;-63
2021/05/26 02:26:07;;;;;;;2.17;1.30;;;;;;;6.58;78.77;96845.25;4979794;28;20689;-64
2021/05/26 02:28:32;;;;;;;2.88;1.27;;;;;;;6.54;79.88;96838.91;4984825;28;20137;-62
2021/05/26 02:30:58;;;;;;;2.45;1.00;;;;;;;6.50;80.69;96841.50;4992677;28;20042;-65
2021/05/26 02:33:23;;;;;;;2.33;1.20;;;;;;;6.43;80.36;96843.97;4991950;28;20744;-62
2021/05/26 02:35:49;;;;;;;2.63;1.10;;;;;;;6.42;81.39;96831.47;5000098;28;20402;-63
2021/05/26 02:38:14;;;;;;;1.58;0.90;;;;;;;6.38;81.76;96825.91;5006473;28;20049;-63
2021/05/26 02:40:40;;;;;;;4.35;1.10;;;;;;;6.42;81.83;96826.03;5001054;28;20453;-63
2021/05/26 02:43:06;;;;;;;2.45;1.60;;;;;;;6.44;81.72;96830.00;4993721;28;20129;-65
2021/05/26 02:45:32;;;;;;;3.03;1.35;;;;;;;6.53;81.53;96819.03;5000133;28;20158;-64
2021/05/26 02:47:59;;;;;;;3.95;1.15;;;;;;;6.68;82.22;96825.75;5011801;28;20042;-62
2021/05/26 02:50:25;;;;;;;1.60;1.05;;;;;;;6.77;80.80;96822.91;4997820;28;20052;-64
2021/05/26 02:52:51;;;;;;;4.85;1.50;;;;;;;6.79;79.76;96820.66;4996716;28;20401;-63
2021/05/26 02:55:18;;;;;;;2.20;1.00;;;;;;;6.87;80.44;96817.81;4985565;28;20042;-65
2021/05/26 02:57:44;;;;;;;2.65;1.10;;;;;;;6.89;80.40;96820.22;4992457;28;20565;-63
2021/05/26 03:00:11;;;;;;;7.03;1.13;;;;;;;6.92;80.49;96816.03;4994292;28;20043;-65
2021/05/26 03:02:36;;;;;;;3.53;1.08;;;;;;;7.07;80.37;96813.41;4997073;28;20128;-63
2021/05/26 03:05:04;;;;;;;1.30;0.80;;;;;;;7.22;79.40;96808.41;4998112;28;20120;-66
2021/05/26 03:07:29;;;;;;;1.98;1.33;;;;;;;7.21;78.93;96815.00;4998014;28;20054;-65
2021/05/26 03:09:55;;;;;;;3.22;1.90;;;;;;;7.06;79.16;96809.09;5000011;28;20052;-65
2021/05/26 03:12:20;;;;;;;1.55;1.05;;;;;;;6.92;79.60;96813.31;4992802;28;20043;-66
2021/05/26 03:14:46;;;;;;;2.83;1.23;;;;;;;6.83;79.48;96806.03;4991844;28;20074;-65
2021/05/26 03:17:11;;;;;;;1.80;1.35;;;;;;;6.64;80.68;96798.41;4996292;28;20046;-67
2021/05/26 03:19:36;;;;;;;5.68;1.65;;;;;;;6.63;80.63;96802.28;4992098;28;20388;-63
2021/05/26 03:22:02;;;;;;;2.85;1.08;;;;;;;6.66;80.96;96803.50;4992511;28;20096;-66
2021/05/26 03:24:28;;;;;;;3.20;1.10;;;;;;;6.63;79.79;96796.03;4994600;28;20045;-67
2021/05/26 03:26:53;;;;;;;2.13;1.40;;;;;;;6.63;79.42;96794.13;4988110;28;20046;-64
2021/05/26 03:29:19;;;;;;;2.28;1.20;;;;;;;6.68;79.89;96798.53;4996390;28;20096;-66
2021/05/26 03:31:45;;;;;;;2.72;1.38;;;;;;;6.73;78.79;96805.69;4994411;28;20073;-66
2021/05/26 03:34:11;;;;;;;2.17;1.00;;;;;;;6.75;80.21;96817.03;4984768;28;20050;-65
2021/05/26 03:36:38;;;;;;;1.75;0.88;;;;;;;6.77;80.57;96821.00;4990172;28;20398;-65
2021/05/26 03:39:05;;;;;;;4.10;1.30;;;;;;;6.82;80.73;96812.59;5015951;28;20038;-66
2021/05/26 03:41:30;;;;;;;9.95;3.38;;;;;;;6.74;81.05;96810.78;5012239;28;20549;-65
2021/05/26 03:43:56;;;;;;;6.50;1.52;;;;;;;6.70;82.09;96807.97;5017648;28;20042;-64
2021/05/26 03:46:21;;;;;;;7.25;1.40;;;;;;;6.64;83.08;96805.78;5012614;28;20241;-65
2021/05/26 03:48:47;;;;;;;4.22;1.38;;;;;;;6.64;84.70;96806.56;5015286;28;20050;-63
2021/05/26 03:51:12;;;;;;;1.65;0.98;;;;;;;6.55;84.30;96805.09;4988049;28;20129;-64
2021/05/26 03:53:38;;;;;;;3.90;1.13;;;;;;;6.56;84.56;96809.41;4997332;28;20049;-64
2021/05/26 03:56:03;;;;;;;4.30;1.08;;;;;;;6.72;84.35;96806.81;4989637;28;20046;-65
2021/05/26 03:58:29;;;;;;;2.70;1.00;;;;;;;6.73;83.54;96808.41;5000618;28;20070;-63
2021/05/26 04:00:54;;;;;;;1.98;1.13;;;;;;;6.78;83.22;96803.53;5000887;28;20136;-64
2021/05/26 04:03:21;;;;;;;1.90;0.95;;;;;;;6.89;82.90;96807.38;4984157;28;20050;-64
2021/05/26 04:05:46;;;;;;;2.78;1.23;;;;;;;6.93;82.85;96801.28;4991312;28;20042;-63
2021/05/26 04:08:12;;;;;;;3.67;1.42;;;;;;;6.82;81.42;96804.44;4995365;28;20038;-63
2021/05/26 04:10:37;;;;;;;3.33;1.10;;;;;;;6.82;80.85;96806.38;4997167;28;20070;-66
2021/05/26 04:13:03;;;;;;;3.38;1.13;;;;;;;6.91;81.67;96798.09;4994842;28;20086;-65
2021/05/26 04:15:28;;;;;;;4.35;1.00;;;;;;;7.01;81.86;96794.94;4999158;28;20052;-64
2021/05/26 04:17:54;;;;;;;1.83;1.25;;;;;;;6.83;83.13;96805.25;4993914;28;20188;-63
2021/05/26 04:20:19;;;;;;;5.60;1.27;;;;;;;6.63;85.27;96804.22;4995978;28;20191;-64
2021/05/26 04:22:44;;;;;;;3.85;1.58;;;;;;;6.68;84.89;96804.78;4999013;28;20592;-63
2021/05/26 04:25:10;;;;;;;4.97;2.47;;;;;;;6.73;84.68;96805.69;4988588;28;20034;-64
2021/05/26 04:27:35;;;;;;;3.15;1.35;;;;;;;6.84;84.21;96790.50;4995878;28;20038;-64
2021/05/26 04:30:01;;;;;;;3.08;1.48;;;;;;;6.95;84.39;96799.00;4992676;28;20113;-62
2021/05/26 04:32:27;;;;;;;1.95;1.00;;;;;;;6.99;84.24;96792.53;4984389;28;20128;-64
2021/05/26 04:34:52;;;;;;;3.65;1.85;;;;;;;7.11;82.63;96794.44;4999335;28;20088;-65
2021/05/26 04:37:18;;;;;;;4.10;1.45;;;;;;;7.22;82.83;96790.16;4977837;28;20046;-64
2021/05/26 04:39:44;;;;;;;2.17;1.10;;;;;;;7.25;83.31;96786.72;4983468;28;20039;-64
2021/05/26 04:42:10;;;;;;;5.30;1.35;;;;;;;7.29;83.16;96786.84;4991115;28;20088;-65
2021/05/26 04:44:36;;;;;;;3.97;1.40;;;;;;;7.42;82.59;96790.34;4994225;28;20074;-64
2021/05/26 04:47:02;;;;;;;2.13;1.25;;;;;;;7.54;82.34;96787.56;4994312;28;20406;-66
2021/05/26 04:49:28;;;;;;;4.18;1.23;;;;;;;7.58;80.92;96788.50;5006844;28;20050;-65
2021/05/26 04:51:53;;;;;;;3.90;1.73;;;;;;;7.74;79.57;96802.19;4996654;28;20129;-64
2021/05/26 04:54:20;;;;;;;2.85;1.20;;;;;;;7.95;79.31;96793.03;4997081;28;20045;-65
2021/05/26 04:56:45;;;;;;;4.35;1.20;;;;;;;8.08;78.22;96785.59;4993641;28;20130;-64
2021/05/26 04:59:12;;;;;;;2.13;1.13;;;;;;;8.28;76.95;96778.31;4987811;28;20582;-64
2021/05/26 05:01:38;;;;;;;2.33;1.13;;;;;;;8.40;77.53;96779.03;4988906;28;20488;-65
2021/05/26 05:04:04;;;;;;;6.10;1.20;;;;;;;8.60;76.50;96768.25;4990219;28;20050;-66
2021/05/26 05:06:29;;;;;;;4.22;1.38;;;;;;;8.65;77.21;96772.69;4991157;28;20050;-65
2021/05/26 05:08:55;;;;;;;4.30;1.05;;;;;;;8.77;76.79;96773.38;4991331;28;20038;-63
2021/05/26 05:11:20;;;;;;;6.90;1.73;;;;;;;8.97;75.84;96771.50;4997003;28;20052;-65
2021/05/26 05:13:47;;;;;;;5.68;2.17;;;;;;;9.30;73.17;96769.53;4997664;28;20137;-63
2021/05/26 05:16:12;;;;;;;9.55;1.98;;;;;;;9.55;72.20;96773.59;4991222;28;20045;-62
2021/05/26 05:18:37;;;;;;;4.05;1.40;;;;;;;9.75;71.43;96776.34;4998441;28;20038;-64
2021/05/26 05:21:03;;;;;;;6.15;2.03;;;;;;;9.95;70.76;96768.94;4983396;28;20372;-66
2021/05/26 05:23:28;;;;;;;4.75;1.00;;;;;;;10.05;71.69;96768.34;4991050;28;20042;-63
2021/05/26 05:25:54;;;;;;;2.97;1.70;;;;;;;10.19;70.32;96770.59;4990215;28;20104;-62
2021/05/26 05:28:19;;;;;;;3.83;0.95;;;;;;;10.39;68.65;96776.03;4989626;28;20080;-64
2021/05/26 05:30:45;;;;;;;4.47;1.45;;;;;;;10.49;67.42;96768.00;4987212;28;20044;-64
2021/05/26 05:33:10;;;;;;;1.63;0.93;;;;;;;10.60;68.22;96764.69;4988473;28;20116;-64
2021/05/26 05:35:36;;;;;;;3.28;1.38;;;;;;;10.67;68.47;96775.75;4993879;28;20054;-61
2021/05/26 05:38:02;;;;;;;3.17;1.02;;;;;;;10.73;69.80;96762.53;4996933;28;20050;-65
2021/05/26 05:40:27;;;;;;;3.38;0.85;;;;;;;10.82;69.98;96758.41;4991632;28;20046;-66
2021/05/26 05:42:52;;;;;;;3.00;0.90;;;;;;;10.85;71.23;96757.66;4992822;28;20064;-63
2021/05/26 05:45:18;;;;;;;3.72;1.02;;;;;;;10.87;72.42;96758.06;4994363;28;20038;-65
2021/05/26 05:47:44;;;;;;;2.05;0.75;;;;;;;11.15;68.10;96764.41;4985149;28;20077;-64
2021/05/26 05:50:15;;;;;;;3.00;1.10;;;;;;;11.41;68.84;96767.09;4991169;28;20449;-65
2021/05/26 05:52:41;;;;;;;4.43;0.88;;;;;;;11.64;68.77;96756.06;5000578;28;20103;-63
2021/05/26 05:55:09;;;;;;;2.50;0.95;;;;;;;11.98;65.21;96752.59;4990999;28;20076;-67
2021/05/26 05:57:34;;;;;;;6.10;1.00;;;;;;;12.00;63.91;96759.28;5014541;28;20042;-65
2021/05/26 06:00:00;;;;;;;3.13;0.70;;;;;;;12.06;61.71;96762.47;5001991;28;20108;-65
2021/05/26 06:02:25;;;;;;;12.32;2.30;;;;;;;11.84;62.00;96758.66;4998280;28;20487;-62
2021/05/26 06:04:51;;;;;;;3.38;0.73;;;;;;;11.94;60.99;96759.97;5000191;28;20442;-63
2021/05/26 06:07:16;;;;;;;1.60;0.80;;;;;;;11.98;59.79;96752.59;5006923;28;20052;-64
2021/05/26 06:09:41;;;;;;;1.55;0.80;;;;;;;12.03;59.42;96746.78;4990912;28;20058;-63
2021/05/26 06:12:07;;;;;;;2.58;1.13;;;;;;;12.19;59.09;96743.78;4992609;28;20080;-63
2021/05/26 06:14:32;;;;;;;5.55;1.02;;;;;;;12.48;58.15;96749.56;4998603;28;20050;-62
2021/05/26 06:16:57;;;;;;;4.15;0.90;;;;;;;12.67;57.84;96749.34;4987914;28;20074;-63
2021/05/26 06:19:23;;;;;;;4.28;1.20;;;;;;;12.46;58.57;96749.97;4985084;28;20534;-64
2021/05/26 06:21:48;;;;;;;6.13;1.40;;;;;;;12.94;56.91;96746.44;4993331;28;20042;-65
2021/05/26 06:24:14;;;;;;;3.20;1.10;;;;;;;12.98;56.38;96748.06;4999522;28;20038;-66
2021/05/26 06:26:39;;;;;;;4.72;1.08;;;;;;;13.26;53.53;96745.91;5019141;28;20058;-64
2021/05/26 06:29:05;;;;;;;5.10;1.13;;;;;;;13.23;55.05;96746.66;5008480;28;20053;-64
2021/05/26 06:31:31;;;;;;;3.28;1.00;;;;;;;13.11;55.24;96743.03;5000634;28;20041;-65
2021/05/26 06:33:57;;;;;;;3.22;1.10;;;;;;;13.01;55.42;96741.00;5005296;28;20038;-65
2021/05/26 06:36:22;;;;;;;1.98;0.90;;;;;;;13.18;55.14;96732.09;4994174;28;20124;-64
2021/05/26 06:38:48;;;;;;;4.47;0.85;;;;;;;13.27;55.80;96741.97;5000975;28;20046;-64
2021/05/26 06:41:13;;;;;;;3.95;1.10;;;;;;;13.53;55.41;96736.25;4997371;28;20042;-66
2021/05/26 06:43:39;;;;;;;5.10;2.13;;;;;;;13.68;54.34;96731.59;5003291;28;20050;-63
2021/05/26 06:46:05;;;;;;;4.03;0.60;;;;;;;13.90;53.93;96728.94;4996928;28;20049;-64
2021/05/26 06:48:31;;;;;;;3.60;1.02;;;;;;;14.20;52.78;96733.38;5004451;28;20057;-65
2021/05/26 06:50:56;;;;;;;1.50;0.57;;;;;;;13.77;51.63;96712.78;5000993;28;20057;-64
2021/05/26 06:53:22;;;;;;;2.38;1.15;;;;;;;14.01;51.97;96723.47;4978948;28;20362;-64
2021/05/26 06:55:47;;;;;;;12.57;0.98;;;;;;;15.38;48.04;96716.88;4988167;28;20055;-65
2021/05/26 06:58:12;;;;;;;2.65;0.73;;;;;;;15.85;47.11;96709.25;4989990;28;20064;-65
2021/05/26 07:00:38;;;;;;;5.50;0.80;;;;;;;15.97;47.12;96702.50;4999773;28;20402;-63
2021/05/26 07:03:05;;;;;;;3.63;0.80;;;;;;;16.56;45.15;96701.72;4991037;28;20038;-65
2021/05/26 07:05:31;;;;;;;4.13;0.70;;;;;;;17.41;42.98;96679.25;5002243;28;20051;-64
2021/05/26 07:07:56;;;;;;;2.17;0.50;;;;;;;17.58;42.70;96686.59;4994638;28;20038;-64
2021/05/26 07:10:22;;;;;;;3.50;0.70;;;;;;;18.70;40.01;96691.44;5000110;28;20061;-64
2021/05/26 07:12:48;;;;;;;4.07;0.68;;;;;;;17.51;42.70;96694.19;5001396;28;20470;-63
2021/05/26 07:15:15;;;;;;;2.42;0.60;;;;;;;17.59;41.99;96684.59;4995593;28;20045;-63
2021/05/26 07:17:40;;;;;;;3.28;0.70;;;;;;;17.32;42.73;96679.78;4992218;28;20050;-63
2021/05/26 07:20:07;;;;;;;4.85;1.40;;;;;;;16.41;43.52;96687.25;4998158;28;20049;-63
2021/05/26 07:22:32;;;;;;;9.90;1.05;;;;;;;16.30;45.37;96685.75;5002810;28;20042;-62
2021/05/26 07:24:58;;;;;;;3.03;0.93;;;;;;;15.45;46.13;96681.00;5002573;28;20064;-62
2021/05/26 07:27:23;;;;;;;5.32;0.95;;;;;;;15.49;47.21;96684.50;4989794;28;20530;-63
2021/05/26 07:29:49;;;;;;;4.55;0.80;;;;;;;16.72;44.81;96687.41;4997971;28;20130;-63
2021/05/26 07:32:14;;;;;;;3.17;0.65;;;;;;;17.16;42.35;96683.09;4988623;28;20038;-63
2021/05/26 07:34:40;;;;;;;7.85;0.98;;;;;;;17.16;42.42;96683.09;5001111;28;20053;-63
2021/05/26 07:37:05;;;;;;;3.22;0.73;;;;;;;17.36;43.17;96683.28;5002387;28;20054;-63
2021/05/26 07:39:34;;;;;;;3.60;0.60;;;;;;;16.72;44.46;96681.88;5004780;28;20077;-65
2021/05/26 07:42:01;;;;;;;4.38;1.00;;;;;;;17.20;43.33;96685.81;5005208;28;20045;-63
2021/05/26 07:44:26;;;;;;;3.35;1.02;;;;;;;16.85;43.21;96682.19;4997144;28;20042;-63
2021/05/26 07:46:54;;;;;;;5.07;1.75;;;;;;;16.13;45.00;96684.66;4995630;28;20325;-63
2021/05/26 07:49:20;;;;;;;3.03;1.35;;;;;;;15.72;45.50;96677.75;4991746;28;20152;-64
2021/05/26 07:51:49;;;;;;;3.80;0.70;;;;;;;16.28;44.56;96663.25;5000890;28;20129;-64
2021/05/26 07:54:15;;;;;;;2.10;0.60;;;;;;;15.97;45.01;96660.28;4990392;28;20065;-64
2021/05/26 07:56:40;;;;;;;4.78;0.80;;;;;;;15.60;46.62;96665.16;5002370;28;20046;-64
2021/05/26 07:59:06;;;;;;;2.92;0.63;;;;;;;16.22;46.11;96660.13;4996373;28;20562;-65
2021/05/26 08:01:31;;;;;;;1.95;0.70;;;;;;;16.90;44.01;96651.31;5009919;23;20057;-62
2021/05/26 08:03:57;;;;;;;3.08;0.60;;;;;;;17.48;42.24;96645.19;4991291;28;20046;-63
2021/05/26 08:06:22;;;;;;;6.88;1.10;;;;;;;17.91;40.66;96647.44;4995020;28;20057;-62
2021/05/26 08:08:47;;;;;;;7.00;0.73;;;;;;;17.42;42.21;96644.06;4992614;28;20092;-61
2021/05/26 08:11:13;;;;;;;2.70;0.77;;;;;;;17.84;42.13;96639.97;4983690;28;20061;-62
2021/05/26 08:13:38;;;;;;;3.45;0.70;;;;;;;18.64;40.18;96637.66;4975049;28;20038;-61
2021/05/26 08:16:04;;;;;;;1.52;0.65;;;;;;;19.35;38.60;96639.59;4973851;28;20046;-62
2021/05/26 08:18:29;;;;;;;3.63;0.60;;;;;;;19.63;37.73;96641.03;4975063;28;20069;-63
2021/05/26 08:20:55;;;;;;;4.63;0.75;;;;;;;19.02;38.00;96648.53;4974856;28;20042;-62
2021/05/26 08:23:22;;;;;;;5.90;1.25;;;;;;;18.28;39.37;96642.97;4955844;28;20051;-63
2021/05/26 08:25:48;;;;;;;4.13;0.80;;;;;;;18.82;39.48;96651.25;4959602;28;20043;-62
2021/05/26 08:28:13;;;;;;;2.45;0.85;;;;;;;18.85;39.09;96653.19;4957620;28;20113;-62
2021/05/26 08:30:40;;;;;;;2.15;0.70;;;;;;;18.36;39.76;96636.09;4960300;28;20126;-62
2021/05/26 08:33:06;;;;;;;5.65;1.98;;;;;;;18.73;38.94;96637.09;4960625;28;20042;-63
2021/05/26 08:35:31;;;;;;;4.53;1.15;;;;;;;19.27;38.20;96641.72;4978274;28;20116;-63
2021/05/26 08:37:56;;;;;;;4.28;0.85;;;;;;;18.77;38.53;96631.50;4979575;28;20046;-63
2021/05/26 08:40:22;;;;;;;5.03;0.95;;;;;;;18.54;39.28;96638.59;4978453;28;20137;-63
2021/05/26 08:42:48;;;;;;;2.30;0.77;;;;;;;18.12;39.90;96630.50;4988318;28;20534;-63
2021/05/26 08:45:14;;;;;;;3.00;0.88;;;;;;;18.78;38.82;96631.06;4985165;28;20038;-62
2021/05/26 08:47:41;;;;;;;3.17;0.93;;;;;;;19.14;38.46;96629.66;4989642;28;20073;-60
2021/05/26 08:50:08;;;;;;;6.22;1.25;;;;;;;19.00;38.28;96619.63;4970679;28;20098;-62
2021/05/26 08:52:33;;;;;;;5.15;0.95;;;;;;;18.84;38.94;96617.53;4978313;28;20420;-62
2021/05/26 08:54:59;;;;;;;2.90;1.10;;;;;;;18.80;39.00;96616.75;4977759;28;20043;-61
2021/05/26 08:57:25;;;;;;;3.38;0.98;;;;;;;18.55;38.79;96620.75;4975610;28;20038;-62
2021/05/26 08:59:50;;;;;;;3.42;0.77;;;;;;;18.66;38.95;96626.13;4969137;28;20518;-62
2021/05/26 09:02:15;;;;;;;4.55;1.00;;;;;;;19.43;38.07;96611.25;4976092;28;20042;-62
2021/05/26 09:04:41;;;;;;;2.45;0.90;;;;;;;18.90;37.87;96622.16;4969531;28;20042;-59
2021/05/26 09:07:12;;;;;;;2.85;0.50;;;;;;;18.22;39.36;96617.72;4956937;28;20145;-61
2021/05/26 09:09:56;;;;;;;3.92;1.00;;;;;;;18.34;39.83;96624.66;4974098;28;20049;-61
2021/05/26 09:12:28;;;;;;;4.22;0.95;;;;;;;18.23;39.92;96626.81;4961669;28;20042;-62
2021/05/26 09:14:55;;;;;;;3.97;0.93;;;;;;;17.94;40.68;96616.91;4981370;28;20064;-60
2021/05/26 09:17:21;;;;;;;5.53;0.93;;;;;;;18.05;40.60;96624.31;4972899;28;20051;-62
2021/05/26 09:19:47;;;;;;;3.67;0.90;;;;;;;17.67;41.16;96621.63;4980225;28;20601;-62
2021/05/26 09:22:18;;;;;;;7.70;0.82;;;;;;;17.11;41.95;96616.34;4973240;28;20042;-63
2021/05/26 09:24:44;;;;;;;5.50;0.95;;;;;;;17.34;41.89;96607.38;4972109;28;20043;-63
2021/05/26 09:27:12;;;;;;;4.13;1.13;;;;;;;17.56;41.82;96617.00;4966814;28;20034;-63
2021/05/26 09:29:41;;;;;;;3.17;0.77;;;;;;;17.58;41.99;96622.91;4982045;28;20043;-62
2021/05/26 09:32:09;;;;;;;3.50;0.77;;;;;;;17.45;41.64;96612.78;4977760;28;20045;-63
2021/05/26 09:34:39;;;;;;;6.07;1.20;;;;;;;17.60;41.40;96608.66;4991068;28;20515;-62
2021/05/26 09:37:06;;;;;;;4.55;0.82;;;;;;;18.15;40.52;96603.97;4977959;28;20057;-61
2021/05/26 09:39:43;;;;;;;4.47;0.80;;;;;;;17.57;39.35;96593.66;4975586;28;20038;-62
2021/05/26 09:42:28;;;;;;;2.15;0.73;;;;;;;17.58;40.81;96595.22;4976351;28;20038;-62
2021/05/26 09:45:11;;;;;;;7.93;1.10;;;;;;;16.97;40.20;96589.59;4976407;28;20046;-61
2021/05/26 09:47:37;;;;;;;2.08;0.70;;;;;;;16.79;41.34;96592.53;4982438;28;20043;-60
2021/05/26 09:50:27;;;;;;;2.75;0.85;;;;;;;17.20;40.18;96594.50;4979264;28;20507;-62
2021/05/26 09:53:01;;;;;;;;;;;;;;;16.79;40.43;96585.00;4977553;28;20058;-62
2021/05/26 09:55:31;;;;;;;1.73;0.60;;;;;;;17.02;40.81;96580.88;4959269;28;19925;-62
2021/05/26 09:57:58;;;;;;;3.75;0.60;;;;;;;17.15;40.14;96583.88;4962426;28;20043;-61
2021/05/26 10:00:25;;;;;;;1.77;0.60;;;;;;;17.15;40.00;96594.94;4961073;28;20205;-62
2021/05/26 10:02:51;;;;;;;9.70;0.80;;;;;;;17.44;39.67;96600.16;4964809;28;20038;-61
2021/05/26 10:05:18;;;;;;;2.35;0.40;;;;;;;16.97;39.81;96592.38;4959041;28;20488;-62
2021/05/26 10:07:50;;;;;;;7.65;0.70;;;;;;;16.88;40.48;96598.38;4980859;28;20249;-61
2021/05/26 10:10:16;;;;;;;4.45;1.20;;;;;;;16.92;40.85;96606.66;4980125;28;20125;-63
2021/05/26 10:12:42;;;;;;;2.95;0.70;;;;;;;17.05;40.47;96599.41;4971131;28;20178;-64
2021/05/26 10:15:11;;;;;;;2.60;0.50;;;;;;;16.59;40.63;96600.63;4975258;28;20038;-62
2021/05/26 10:17:39;;;;;;;3.17;0.88;;;;;;;16.97;40.27;96603.44;4977807;28;20046;-62
2021/05/26 10:20:11;;;;;;;15.27;6.93;;;;;;;17.12;40.75;96598.53;4976695;28;20486;-61
2021/05/26 10:22:38;;;;;;;4.15;0.95;;;;;;;16.81;40.22;96595.66;4979560;28;20054;-62
2021/05/26 10:25:10;;;;;;;7.78;1.52;;;;;;;16.47;40.60;96585.31;4963199;28;20411;-61
2021/05/26 10:27:39;;;;;;;5.15;0.80;;;;;;;16.49;40.40;96598.72;4980227;28;20060;-61
2021/05/26 10:30:07;;;;;;;4.80;0.97;;;;;;;16.46;40.76;96607.81;4972285;28;20728;-61
2021/05/26 10:33:01;;;;;;;4.28;1.10;;;;;;;16.41;41.99;96606.31;4968923;28;20041;-61
2021/05/26 10:35:53;;;;;;;3.53;0.65;;;;;;;16.51;40.91;96593.56;4957307;28;20049;-62
2021/05/26 10:38:19;;;;;;;2.08;0.77;;;;;;;16.24;41.12;96591.41;4970929;28;20046;-61
2021/05/26 10:40:49;;;;;;;4.03;0.63;;;;;;;16.22;41.84;96610.38;4981641;28;20047;-61
2021/05/26 10:43:21;;;;;;;5.78;0.90;;;;;;;16.06;41.75;96608.13;4977891;28;20156;-61
2021/05/26 10:45:52;;;;;;;3.90;0.98;;;;;;;16.20;43.10;96610.00;4976609;28;20105;-60
2021/05/26 10:48:39;;;;;;;3.00;0.90;;;;;;;15.95;42.58;96601.88;4968615;28;20521;-60
2021/05/26 10:51:05;;;;;;;4.05;0.95;;;;;;;15.98;42.60;96604.63;4970027;28;20057;-61
2021/05/26 10:53:38;;;;;;;3.33;0.70;;;;;;;15.88;43.24;96619.28;4981978;28;20077;-62
2021/05/26 10:56:04;;;;;;;4.80;0.90;;;;;;;16.02;42.89;96619.19;4974650;28;20117;-62
2021/05/26 10:58:42;;;;;;;5.13;1.00;;;;;;;16.10;43.30;96611.66;4978038;28;20503;-62
2021/05/26 11:01:08;;;;;;;3.63;0.73;;;;;;;15.82;43.77;96610.63;4957192;28;20051;-62
2021/05/26 11:03:34;;;;;;;3.30;0.70;;;;;;;15.99;44.66;96614.50;4964720;28;20049;-64
2021/05/26 11:06:02;;;;;;;3.33;0.90;;;;;;;16.23;43.41;96614.72;4966796;28;20051;-61
2021/05/26 11:11:29;;;;;;;5.72;0.90;;;;;;;16.51;43.56;96610.16;4959645;28;20035;-61
2021/05/26 11:14:04;;;;;;;2.25;0.68;;;;;;;16.47;43.30;96612.16;4972243;28;20126;-62
2021/05/26 11:16:45;;;;;;;3.72;0.85;;;;;;;16.59;43.09;96603.38;4963466;28;20046;-61
2021/05/26 11:19:15;;;;;;;2.83;0.80;;;;;;;16.44;43.05;96600.75;4958170;28;20078;-61
2021/05/26 11:21:54;;;;;;;4.00;0.98;;;;;;;16.38;43.62;96604.34;4965550;28;20125;-62
2021/05/26 11:24:21;;;;;;;6.68;1.45;;;;;;;16.46;44.42;96610.59;4966330;28;20043;-61
2021/05/26 11:26:47;;;;;;;6.45;1.35;;;;;;;16.51;44.36;96601.88;4968410;28;20588;-61
2021/05/26 11:29:12;;;;;;;3.35;1.75;;;;;;;16.59;44.99;96600.63;4967304;28;20042;-63
2021/05/26 11:31:39;;;;;;;4.07;1.20;;;;;;;16.35;45.40;96610.69;4981753;28;20130;-62
2021/05/26 11:34:07;;;;;;;3.45;0.85;;;;;;;16.75;46.09;96611.16;4964458;28;20538;-62
2021/05/26 11:36:46;;;;;;;4.00;1.00;;;;;;;17.00;45.58;96614.47;4982210;28;20050;-62
2021/05/26 11:39:26;;;;;;;3.67;1.10;;;;;;;16.93;46.09;96609.00;4976718;28;20449;-61
2021/05/26 11:41:52;;;;;;;;;;;;;;;16.90;46.38;96620.88;4982534;28;20281;-62